Time;durP1;ratioP1;P1;durP2;ratioP2;P2;SDS_P1;SDS_P2;PMS_P1;PMS_P2;Temp;Humidity;BMP_temperature;BMP_pressure;BME280_temperature;BME280_humidity;BME280_pressure;Samples;Min_cycle;Max_cycle;Signal;HPM_P1;HPM_P2
2022/07/15 00:02:29;;;;;;;5.65;1.88;;;;;;;15.19;60.06;100857.03;10244914;28;20536;-80
2022/07/15 00:07:32;;;;;;;7.55;2.58;;;;;;;14.93;60.99;100856.75;10262591;28;21185;-80
2022/07/15 00:12:35;;;;;;;6.10;1.80;;;;;;;14.87;61.42;100857.34;10263132;28;20043;-80
2022/07/15 00:17:40;;;;;;;6.88;1.80;;;;;;;14.98;60.94;100857.19;10283734;28;20126;-80
2022/07/15 00:22:44;;;;;;;3.75;1.75;;;;;;;15.05;60.84;100856.47;10264185;28;20055;-80
2022/07/15 00:27:54;;;;;;;3.92;2.10;;;;;;;14.91;61.25;100854.19;10266747;28;20053;-80
2022/07/15 00:33:00;;;;;;;8.48;2.65;;;;;;;14.75;61.35;100856.59;10249981;28;20050;-80
2022/07/15 00:38:04;;;;;;;2.85;1.92;;;;;;;14.62;61.95;100858.69;10258811;28;20047;-79
2022/07/15 00:43:17;;;;;;;7.25;2.25;;;;;;;14.68;62.02;100859.00;10272005;28;20058;-80
2022/07/15 00:48:22;;;;;;;3.92;2.15;;;;;;;14.60;61.88;100869.66;10194814;29;20067;-79
2022/07/15 00:53:29;;;;;;;6.70;2.30;;;;;;;14.44;62.37;100869.34;10218943;28;20051;-81
2022/07/15 00:58:34;;;;;;;2.88;2.22;;;;;;;14.49;62.39;100870.63;10265844;28;20130;-80
2022/07/15 01:03:40;;;;;;;5.55;2.65;;;;;;;14.46;62.71;100880.88;10259743;28;20055;-79
2022/07/15 01:08:43;;;;;;;7.50;2.47;;;;;;;14.51;62.67;100879.47;10273839;28;20109;-80
2022/07/15 01:13:47;;;;;;;5.50;2.35;;;;;;;14.30;63.46;100882.19;10257898;28;20051;-80
2022/07/15 01:18:52;;;;;;;4.10;2.50;;;;;;;14.46;62.87;100880.88;10251869;28;20150;-81
2022/07/15 01:23:58;;;;;;;5.55;1.80;;;;;;;14.47;63.01;100866.34;10273434;28;20476;-80
2022/07/15 01:29:18;;;;;;;6.85;2.58;;;;;;;14.51;63.13;100884.88;10271164;28;20063;-81
2022/07/15 01:34:22;;;;;;;5.07;2.28;;;;;;;14.82;62.40;100885.63;10251817;28;21286;-79
2022/07/15 01:39:26;;;;;;;6.13;2.17;;;;;;;15.01;61.63;100890.22;10247514;28;20051;-80
2022/07/15 01:44:40;;;;;;;3.58;1.85;;;;;;;14.90;61.72;100882.25;10264739;28;20058;-80
2022/07/15 01:49:43;;;;;;;7.20;2.50;;;;;;;14.75;61.93;100883.63;10260375;28;20420;-79
2022/07/15 01:54:48;;;;;;;3.35;2.05;;;;;;;14.58;62.65;100885.16;10269254;28;20050;-78
2022/07/15 01:59:51;;;;;;;5.53;2.30;;;;;;;14.42;63.30;100882.13;10262670;28;20049;-78
2022/07/15 02:05:14;;;;;;;6.00;1.80;;;;;;;14.30;63.43;100884.91;10258847;28;20055;-79
2022/07/15 02:10:20;;;;;;;9.95;2.70;;;;;;;14.21;63.67;100882.16;10277138;28;20051;-78
2022/07/15 02:15:24;;;;;;;5.55;2.30;;;;;;;13.98;64.49;100885.03;10249999;28;20054;-79
2022/07/15 02:20:32;;;;;;;8.18;2.50;;;;;;;13.90;64.99;100887.53;10241873;28;20049;-79
2022/07/15 02:25:36;;;;;;;7.15;2.53;;;;;;;13.38;66.65;100897.44;10276682;28;20055;-79
2022/07/15 02:30:41;;;;;;;6.97;2.75;;;;;;;13.46;66.29;100901.19;10251752;28;20499;-80
2022/07/15 02:35:46;;;;;;;8.02;2.75;;;;;;;13.32;66.72;100914.13;10250526;28;20145;-79
2022/07/15 02:40:50;;;;;;;8.85;2.65;;;;;;;13.15;67.78;100915.53;10248915;28;20047;-79
2022/07/15 02:45:53;;;;;;;4.53;2.60;;;;;;;13.23;67.53;100926.53;10251676;28;20074;-80
2022/07/15 02:50:56;;;;;;;11.38;2.90;;;;;;;13.15;67.73;100920.94;10259419;28;20047;-81
2022/07/15 02:56:03;;;;;;;6.10;2.83;;;;;;;13.14;67.61;100924.63;10253962;28;20058;-78
2022/07/15 03:01:07;;;;;;;6.97;2.95;;;;;;;13.18;67.28;100920.66;10261682;28;20082;-79
2022/07/15 03:06:10;;;;;;;4.68;2.65;;;;;;;13.25;67.38;100932.69;10224073;28;20054;-79
2022/07/15 03:11:15;;;;;;;7.85;2.92;;;;;;;13.33;66.53;100937.41;10241797;28;20043;-79
2022/07/15 03:16:20;;;;;;;8.85;2.47;;;;;;;13.16;66.64;100934.28;10245477;28;20613;-79
2022/07/15 03:21:26;;;;;;;6.20;2.53;;;;;;;12.92;67.26;100939.03;10304376;28;20947;-79
2022/07/15 03:26:31;;;;;;;9.52;3.03;;;;;;;12.90;67.42;100933.75;10270230;28;20684;-80
2022/07/15 03:31:35;;;;;;;11.35;3.20;;;;;;;12.99;67.39;100940.22;10272369;28;20053;-82
2022/07/15 03:36:38;;;;;;;6.03;2.28;;;;;;;13.01;66.93;100940.97;10261580;28;20107;-80
2022/07/15 03:41:43;;;;;;;10.10;3.17;;;;;;;12.95;67.31;100942.31;10263557;28;20052;-80
2022/07/15 03:46:47;;;;;;;6.50;3.00;;;;;;;13.00;67.42;100940.09;10250700;28;20516;-79
2022/07/15 03:51:51;;;;;;;10.15;3.30;;;;;;;13.06;67.23;100952.22;10278249;28;20155;-78
2022/07/15 03:56:55;;;;;;;7.13;3.03;;;;;;;13.01;67.49;100949.03;10277510;28;20046;-81
2022/07/15 04:01:59;;;;;;;14.13;3.25;;;;;;;12.99;67.14;100965.34;10256879;28;20049;-81
2022/07/15 04:07:02;;;;;;;8.63;3.08;;;;;;;12.85;67.75;100964.78;10256381;28;20118;-81
2022/07/15 04:12:07;;;;;;;10.30;3.13;;;;;;;12.79;68.04;100966.97;10258576;28;20056;-80
2022/07/15 04:17:14;;;;;;;11.68;3.88;;;;;;;12.63;68.26;100962.97;10276343;28;20452;-80
2022/07/15 04:22:17;;;;;;;6.90;3.42;;;;;;;12.53;68.82;100968.22;10251918;28;20051;-80
2022/07/15 04:27:25;;;;;;;8.43;3.60;;;;;;;12.60;68.70;100973.00;10268895;28;20059;-81
2022/07/15 04:32:28;;;;;;;7.93;2.95;;;;;;;12.53;69.29;100971.78;10270542;28;20070;-79
2022/07/15 04:37:32;;;;;;;9.88;2.97;;;;;;;12.47;69.44;100974.09;10272585;28;20092;-80
2022/07/15 04:42:36;;;;;;;13.63;3.83;;;;;;;12.57;69.35;100983.19;10266498;28;20055;-80
2022/07/15 04:47:43;;;;;;;13.32;3.58;;;;;;;12.66;68.97;100981.56;10269369;28;20046;-81
2022/07/15 04:52:52;;;;;;;7.85;3.40;;;;;;;12.90;68.42;100987.69;10254858;28;20074;-81
2022/07/15 04:57:57;;;;;;;9.60;3.33;;;;;;;13.08;67.79;100984.44;10261519;28;20042;-80
2022/07/15 05:03:04;;;;;;;9.25;3.20;;;;;;;13.34;66.71;100991.25;10284291;28;21286;-82
2022/07/15 05:08:09;;;;;;;7.53;2.53;;;;;;;13.58;66.58;100993.78;10275962;28;20054;-82
2022/07/15 05:13:20;;;;;;;8.13;2.50;;;;;;;14.11;65.77;100990.19;10252370;28;20078;-81
2022/07/15 05:18:25;;;;;;;4.82;2.03;;;;;;;13.89;65.09;100992.03;10246094;28;20172;-79
2022/07/15 05:23:31;;;;;;;7.75;2.10;;;;;;;14.33;63.23;101000.81;10274313;28;20050;-80
2022/07/15 05:28:40;;;;;;;5.47;1.58;;;;;;;14.34;63.35;101002.56;10260356;28;20055;-81
2022/07/15 05:33:44;;;;;;;8.88;2.03;;;;;;;15.06;61.39;100998.03;10235553;28;20067;-80
2022/07/15 05:38:47;;;;;;;6.75;1.75;;;;;;;15.08;60.94;100997.88;10272444;28;20035;-80
2022/07/15 05:43:54;;;;;;;7.03;1.63;;;;;;;15.19;60.46;101009.47;10246239;28;20070;-81
2022/07/15 05:48:58;;;;;;;10.32;1.58;;;;;;;15.02;60.36;101013.66;10238932;28;20047;-81
2022/07/15 05:54:01;;;;;;;10.63;1.83;;;;;;;14.71;61.48;101007.44;10253634;28;20050;-80
2022/07/15 05:59:05;;;;;;;11.85;2.15;;;;;;;15.25;60.14;101003.47;10269903;28;20058;-79
2022/07/15 06:04:10;;;;;;;7.07;2.05;;;;;;;14.37;61.97;101013.09;10230438;28;20053;-79
2022/07/15 06:09:15;;;;;;;9.73;1.67;;;;;;;15.12;60.13;101019.13;10261950;28;20058;-80
2022/07/15 06:14:21;;;;;;;9.27;1.88;;;;;;;15.56;58.87;101021.50;10239322;28;20093;-80
2022/07/15 06:19:26;;;;;;;8.13;1.52;;;;;;;15.77;58.09;101027.63;10237463;28;20192;-79
2022/07/15 06:24:29;;;;;;;6.95;1.20;;;;;;;15.83;57.34;101021.66;10244500;28;20054;-79
2022/07/15 06:29:34;;;;;;;6.00;1.27;;;;;;;15.92;56.30;101025.34;10212865;28;20051;-79
2022/07/15 06:34:37;;;;;;;9.23;1.40;;;;;;;15.84;57.69;101020.63;10264038;28;20050;-79
2022/07/15 06:39:40;;;;;;;9.27;1.55;;;;;;;16.72;55.17;101024.03;10240813;28;21168;-79
2022/07/15 06:44:45;;;;;;;10.52;1.58;;;;;;;16.33;55.57;101028.72;10265487;28;20173;-79
2022/07/15 06:49:49;;;;;;;8.25;1.88;;;;;;;16.96;54.30;101012.63;10270664;28;20039;-79
2022/07/15 06:54:53;;;;;;;7.00;1.40;;;;;;;16.67;55.31;101020.06;10257423;28;20055;-80
2022/07/15 06:59:57;;;;;;;6.50;1.27;;;;;;;16.83;53.91;101016.72;10240758;28;20043;-79
2022/07/15 07:05:01;;;;;;;4.68;0.80;;;;;;;17.03;52.77;101010.16;10258042;28;20066;-79
2022/07/15 07:10:06;;;;;;;2.78;0.90;;;;;;;16.89;52.45;101018.81;10249842;28;20051;-79
2022/07/15 07:15:11;;;;;;;5.88;1.02;;;;;;;17.07;52.46;101017.00;10233666;28;20065;-80
2022/07/15 07:20:14;;;;;;;4.80;1.45;;;;;;;17.89;49.44;101015.16;10231641;28;20070;-77
2022/07/15 07:25:17;;;;;;;3.58;0.90;;;;;;;18.56;47.46;101019.03;10231482;28;20055;-78
2022/07/15 07:30:21;;;;;;;6.13;1.35;;;;;;;20.16;44.92;101014.53;10229584;28;20083;-78
2022/07/15 07:35:24;;;;;;;7.40;1.08;;;;;;;19.13;44.64;101017.66;10237312;28;20122;-77
2022/07/15 07:40:27;;;;;;;7.10;1.10;;;;;;;20.85;41.71;101006.75;10237130;28;20063;-77
2022/07/15 07:45:32;;;;;;;4.40;0.88;;;;;;;19.36;45.62;101015.16;10240462;28;20079;-77
2022/07/15 07:50:34;;;;;;;6.38;1.35;;;;;;;21.68;42.75;101009.69;10232637;28;20062;-78
2022/07/15 07:55:38;;;;;;;7.63;1.25;;;;;;;24.22;37.10;100998.34;10236924;28;20054;-79
2022/07/15 08:00:42;;;;;;;4.35;0.68;;;;;;;22.22;38.64;101000.56;10234110;28;20101;-79
2022/07/15 08:05:45;;;;;;;5.93;0.85;;;;;;;21.43;40.92;101017.22;10240312;28;20374;-77
2022/07/15 08:10:50;;;;;;;4.75;0.93;;;;;;;19.95;43.42;101021.38;10235965;28;20051;-79
2022/07/15 08:15:56;;;;;;;2.08;0.77;;;;;;;18.36;46.26;101023.88;10237337;28;20046;-78
2022/07/15 08:21:06;;;;;;;;;;;;;;;16.93;48.63;101033.81;10239142;28;20173;-79
2022/07/15 08:26:10;;;;;;;3.53;0.80;;;;;;;17.50;47.17;101031.78;10246168;28;19933;-78
2022/07/15 08:31:15;;;;;;;4.82;1.30;;;;;;;16.78;47.98;101028.00;10240280;28;20074;-78
2022/07/15 08:36:18;;;;;;;4.35;1.13;;;;;;;18.59;45.45;101026.03;10236915;28;20192;-78
2022/07/15 08:41:22;;;;;;;8.18;1.00;;;;;;;19.29;43.62;101022.28;10234336;28;20043;-78
2022/07/15 08:46:26;;;;;;;3.05;0.80;;;;;;;20.05;41.28;101013.91;10228411;28;20055;-78
2022/07/15 08:51:33;;;;;;;2.15;0.50;;;;;;;20.59;39.19;101018.75;10226816;28;20193;-79
2022/07/15 08:56:37;;;;;;;3.83;0.60;;;;;;;19.39;40.29;101026.59;10264298;28;20154;-78
2022/07/15 09:01:44;;;;;;;3.03;0.70;;;;;;;19.14;40.78;101030.22;10236420;28;20128;-78
2022/07/15 09:06:50;;;;;;;2.10;1.10;;;;;;;19.52;41.09;101034.25;10223153;28;20058;-78
2022/07/15 09:11:59;;;;;;;4.30;0.60;;;;;;;20.14;40.29;101028.38;10283916;28;21093;-79
2022/07/15 09:17:25;;;;;;;4.13;0.57;;;;;;;20.80;38.91;101020.91;10262414;28;20050;-77
2022/07/15 09:22:49;;;;;;;3.33;0.60;;;;;;;20.47;39.05;101021.00;10236512;28;20512;-79
2022/07/15 09:27:53;;;;;;;2.70;0.77;;;;;;;20.52;39.15;101025.97;10231430;28;20043;-79
2022/07/15 09:38:24;;;;;;;2.08;0.57;;;;;;;20.09;39.60;101028.03;10229576;28;20054;-79
2022/07/15 09:43:28;;;;;;;2.47;0.80;;;;;;;20.71;38.84;101032.91;10234183;28;20129;-78
2022/07/15 09:48:40;;;;;;;2.22;0.55;;;;;;;21.80;37.97;101034.78;10231882;28;20138;-78
2022/07/15 09:53:44;;;;;;;2.78;0.73;;;;;;;22.11;36.86;101020.16;10239318;28;20083;-79
2022/07/15 09:58:47;;;;;;;1.35;0.50;;;;;;;21.41;38.51;101037.56;10246367;28;20054;-78
2022/07/15 10:03:54;;;;;;;2.83;1.00;;;;;;;21.28;38.45;101029.94;10245058;28;20444;-78
2022/07/15 10:08:58;;;;;;;2.35;0.60;;;;;;;22.18;38.49;101037.50;10233279;28;20079;-78
2022/07/15 10:20:33;;;;;;;2.97;0.88;;;;;;;23.37;35.00;101016.50;11441798;23;20047;-76
2022/07/15 10:25:56;;;;;;;3.42;0.50;;;;;;;22.92;36.27;101025.81;10315551;28;20422;-76
2022/07/15 10:31:20;;;;;;;6.45;0.60;;;;;;;20.81;38.17;101021.75;10290811;28;20046;-76
2022/07/15 10:36:25;;;;;;;3.25;0.95;;;;;;;21.54;37.32;101015.97;10299376;28;20045;-76
2022/07/15 10:41:49;;;;;;;2.47;0.50;;;;;;;23.00;36.25;101012.84;10313712;28;20074;-76
2022/07/15 10:47:19;;;;;;;2.88;0.38;;;;;;;22.29;35.17;101009.69;10324295;28;20086;-76
2022/07/15 10:52:25;;;;;;;1.33;0.35;;;;;;;22.78;33.30;100997.38;10305342;28;20124;-76
2022/07/15 10:57:54;;;;;;;0.88;0.45;;;;;;;21.80;35.22;100998.34;10289140;28;20707;-76
2022/07/15 11:03:05;;;;;;;1.42;0.82;;;;;;;23.60;34.31;100988.88;10325089;28;20546;-76
2022/07/15 11:08:55;;;;;;;3.23;0.50;;;;;;;21.99;34.62;100988.78;10304352;28;20043;-76
2022/07/15 11:13:57;;;;;;;4.28;0.57;;;;;;;23.26;34.71;100975.91;10252341;28;20399;-76
2022/07/15 11:19:12;;;;;;;3.10;0.65;;;;;;;22.34;35.22;100985.34;10320223;28;20640;-76
2022/07/15 11:24:16;;;;;;;2.45;0.70;;;;;;;20.23;37.64;100991.88;10311277;28;20136;-76
2022/07/15 11:29:19;;;;;;;2.40;0.60;;;;;;;20.45;37.98;100987.59;10321225;28;20042;-76
2022/07/15 11:34:37;;;;;;;2.17;0.55;;;;;;;19.91;39.44;100990.00;10316854;28;20684;-76
2022/07/15 11:39:42;;;;;;;4.03;0.85;;;;;;;20.35;37.74;100989.69;10288110;28;20046;-76
2022/07/15 11:44:47;;;;;;;4.05;0.63;;;;;;;21.58;37.21;100984.47;10308671;28;20054;-76
2022/07/15 11:49:50;;;;;;;2.78;0.60;;;;;;;22.22;36.82;100975.94;10324691;28;20125;-76
2022/07/15 11:54:54;;;;;;;3.42;0.50;;;;;;;23.02;36.50;100968.00;10314476;28;20038;-76
2022/07/15 11:59:59;;;;;;;3.25;0.60;;;;;;;22.48;37.07;100974.66;10295166;28;20381;-76
2022/07/15 12:05:04;;;;;;;3.35;0.73;;;;;;;21.14;37.34;100973.34;10308040;28;20057;-76
2022/07/15 12:10:09;;;;;;;2.03;0.38;;;;;;;22.08;35.78;100968.56;10313294;28;20047;-76
2022/07/15 12:15:14;;;;;;;2.13;0.52;;;;;;;22.32;34.98;100968.31;10299961;28;20483;-76
2022/07/15 12:20:17;;;;;;;1.75;0.45;;;;;;;23.16;32.77;100962.50;10304248;28;20049;-76
2022/07/15 12:25:21;;;;;;;0.93;0.45;;;;;;;24.15;32.01;100953.50;10294804;28;20059;-76
2022/07/15 12:30:31;;;;;;;2.85;0.60;;;;;;;25.01;32.34;100955.03;10327939;28;20110;-76
2022/07/15 12:35:34;;;;;;;0.82;0.47;;;;;;;24.52;32.15;100949.56;10349473;28;20054;-76
2022/07/15 12:40:38;;;;;;;4.13;0.68;;;;;;;22.47;34.80;100951.06;10312178;28;20105;-76
2022/07/15 12:45:43;;;;;;;1.38;0.40;;;;;;;24.25;33.48;100950.44;10309192;28;20431;-76
2022/07/15 12:51:00;;;;;;;0.90;0.32;;;;;;;22.83;33.93;100947.53;10294760;28;20049;-76
2022/07/15 12:56:06;;;;;;;4.43;0.50;;;;;;;22.23;33.59;100955.72;10307732;28;20054;-76
2022/07/15 13:01:11;;;;;;;3.83;0.40;;;;;;;21.78;35.82;100959.44;10296715;28;20046;-76
2022/07/15 13:06:16;;;;;;;4.47;0.40;;;;;;;22.03;36.07;100957.31;10306944;28;20066;-76
2022/07/15 13:11:24;;;;;;;2.40;0.40;;;;;;;22.16;35.44;100956.66;10319815;28;20050;-76
2022/07/15 13:16:27;;;;;;;2.22;0.40;;;;;;;21.21;37.08;100955.22;10329834;28;20423;-76
2022/07/15 13:21:30;;;;;;;3.97;0.60;;;;;;;19.46;39.20;100966.81;10318086;28;20434;-76
2022/07/15 13:26:34;;;;;;;2.92;0.55;;;;;;;20.17;38.60;100967.19;10303914;28;20415;-75
2022/07/15 13:31:37;;;;;;;2.03;0.40;;;;;;;20.29;38.83;100963.03;10291812;28;20484;-75
2022/07/15 13:36:40;;;;;;;3.22;0.50;;;;;;;19.76;40.07;100967.22;10301819;28;20459;-75
2022/07/15 13:41:44;;;;;;;2.63;0.40;;;;;;;20.24;39.97;100976.34;10324077;28;20034;-75
2022/07/15 13:46:47;;;;;;;1.40;0.57;;;;;;;20.67;39.23;100966.88;10312335;28;20125;-76
2022/07/15 13:51:50;;;;;;;1.60;0.60;;;;;;;21.10;39.12;100969.28;10321305;28;20046;-76
2022/07/15 13:56:54;;;;;;;2.47;0.45;;;;;;;21.90;38.36;100960.69;10302380;28;20415;-76
2022/07/15 14:02:00;;;;;;;0.55;0.40;;;;;;;22.64;36.93;100955.28;10327468;28;20088;-76
2022/07/15 14:07:03;;;;;;;1.23;0.45;;;;;;;23.17;35.71;100961.44;10314236;28;20070;-76
2022/07/15 14:12:07;;;;;;;4.95;1.10;;;;;;;23.29;36.04;100953.56;10300934;28;20491;-76
2022/07/15 14:17:10;;;;;;;0.63;0.30;;;;;;;25.18;31.85;100948.16;10295714;28;20050;-76
2022/07/15 14:22:14;;;;;;;0.70;0.20;;;;;;;25.16;32.30;100940.13;10308771;28;20054;-76
2022/07/15 14:27:18;;;;;;;1.42;0.40;;;;;;;24.44;31.81;100933.25;10314449;28;20122;-76
2022/07/15 14:32:21;;;;;;;1.27;0.45;;;;;;;24.48;32.13;100934.53;10294793;28;20039;-76
2022/07/15 14:37:24;;;;;;;1.05;0.30;;;;;;;25.44;31.29;100944.59;10308621;28;20129;-76
2022/07/15 14:42:38;;;;;;;0.93;0.40;;;;;;;25.48;31.74;100926.66;10314710;28;20038;-75
2022/07/15 14:47:41;;;;;;;1.65;0.20;;;;;;;25.01;31.64;100931.16;10320310;28;20038;-74
2022/07/15 14:52:44;;;;;;;3.75;0.60;;;;;;;22.81;34.74;100946.88;10324791;28;20038;-75
2022/07/15 14:57:48;;;;;;;1.08;0.50;;;;;;;23.69;34.02;100934.75;10316031;28;20094;-75
2022/07/15 15:02:51;;;;;;;0.80;0.50;;;;;;;25.96;31.07;100920.13;10321158;28;20046;-75
2022/07/15 15:07:54;;;;;;;0.25;0.20;;;;;;;23.30;33.92;100918.78;10327141;28;20042;-76
2022/07/15 15:12:58;;;;;;;1.55;0.45;;;;;;;24.30;33.13;100925.97;10324040;28;20158;-75
2022/07/15 15:18:02;;;;;;;3.38;0.93;;;;;;;24.10;33.56;100921.16;10323195;28;20045;-75
2022/07/15 15:23:05;;;;;;;3.17;0.60;;;;;;;24.37;33.57;100912.25;10326733;28;20068;-75
2022/07/15 15:28:09;;;;;;;1.30;0.50;;;;;;;26.22;31.23;100930.22;10326556;28;20046;-75
2022/07/15 15:33:12;;;;;;;1.85;0.68;;;;;;;26.16;31.00;100914.56;10310172;28;20126;-75
2022/07/15 15:38:15;;;;;;;1.05;0.43;;;;;;;22.99;33.37;100919.91;10316928;28;20050;-75
2022/07/15 15:43:19;;;;;;;2.55;0.50;;;;;;;22.36;34.41;100908.56;10301187;28;20059;-75
2022/07/15 15:48:22;;;;;;;3.60;0.30;;;;;;;21.85;36.25;100917.47;10305427;28;20074;-75
2022/07/15 15:53:25;;;;;;;1.23;0.40;;;;;;;21.50;35.37;100909.91;10296320;28;20049;-75
2022/07/15 15:58:29;;;;;;;1.33;0.47;;;;;;;23.03;35.17;100909.41;10296435;28;20043;-75
2022/07/15 16:03:32;;;;;;;0.88;0.40;;;;;;;23.59;35.36;100912.31;10280774;28;20114;-75
2022/07/15 16:08:35;;;;;;;0.40;0.40;;;;;;;23.32;35.39;100913.97;10279537;28;20138;-75
2022/07/15 16:13:40;;;;;;;1.50;0.50;;;;;;;23.55;35.41;100905.53;10257036;28;20050;-75
2022/07/15 16:18:43;;;;;;;2.28;0.50;;;;;;;24.57;34.81;100901.41;10262200;28;20054;-75
2022/07/15 16:23:46;;;;;;;0.70;0.20;;;;;;;25.81;32.86;100892.84;10277311;28;20046;-76
2022/07/15 16:28:50;;;;;;;1.40;0.50;;;;;;;26.17;31.68;100886.00;10261082;28;20261;-76
2022/07/15 16:33:53;;;;;;;0.80;0.28;;;;;;;27.12;30.19;100887.09;10284975;28;21186;-75
2022/07/15 16:38:56;;;;;;;0.32;0.30;;;;;;;26.51;30.80;100882.94;10255941;28;21160;-75
2022/07/15 16:44:00;;;;;;;2.28;0.47;;;;;;;26.65;31.20;100877.38;10277176;28;20629;-75
2022/07/15 16:49:03;;;;;;;2.83;0.60;;;;;;;29.17;28.01;100871.38;10285968;28;20069;-75
2022/07/15 16:54:06;;;;;;;2.38;0.30;;;;;;;27.43;30.12;100862.50;10271032;28;20047;-75
2022/07/15 16:59:11;;;;;;;3.50;0.57;;;;;;;30.75;25.32;100852.09;10258265;28;20101;-75
2022/07/15 17:04:15;;;;;;;1.02;0.43;;;;;;;33.43;23.48;100848.06;10268370;28;20046;-75
2022/07/15 17:09:17;;;;;;;1.17;0.38;;;;;;;34.29;22.23;100852.56;10280923;28;20063;-75
2022/07/15 17:14:22;;;;;;;1.08;0.40;;;;;;;26.31;29.23;100846.38;10292937;28;20053;-75
2022/07/15 17:19:25;;;;;;;1.65;0.70;;;;;;;27.03;30.23;100858.09;10280446;28;20051;-74
2022/07/15 17:24:29;;;;;;;1.17;0.20;;;;;;;34.02;23.14;100832.34;10281295;28;20039;-74
2022/07/15 17:29:33;;;;;;;0.70;0.22;;;;;;;36.49;20.63;100838.66;10290597;28;20077;-74
2022/07/15 17:34:36;;;;;;;3.60;0.50;;;;;;;36.81;20.17;100838.22;10277498;28;20054;-74
2022/07/15 17:39:39;;;;;;;2.75;0.40;;;;;;;29.00;27.25;100857.34;10265421;28;20061;-74
2022/07/15 17:44:43;;;;;;;1.95;0.40;;;;;;;24.50;33.03;100858.28;10252158;28;20062;-75
2022/07/15 17:55:51;;;;;;;2.10;0.28;;;;;;;22.30;37.63;100860.91;10271130;28;20061;-73
2022/07/15 18:00:55;;;;;;;1.13;0.40;;;;;;;22.19;38.39;100849.56;10263958;28;20135;-74
2022/07/15 18:05:57;;;;;;;2.70;0.40;;;;;;;22.18;38.31;100851.47;10253105;28;20046;-74
2022/07/15 18:11:00;;;;;;;0.40;0.30;;;;;;;21.88;39.13;100853.34;10257445;28;21314;-74
2022/07/15 18:16:05;;;;;;;2.80;0.57;;;;;;;21.60;39.60;100856.69;10285492;28;20094;-74
2022/07/15 18:21:07;;;;;;;0.93;0.30;;;;;;;21.35;40.25;100855.22;10271700;28;20051;-73
2022/07/15 18:26:11;;;;;;;1.10;0.40;;;;;;;21.22;40.27;100851.19;10259878;28;20648;-75
2022/07/15 18:31:15;;;;;;;1.75;0.40;;;;;;;21.05;41.02;100848.78;10258308;28;20050;-75
2022/07/15 18:36:18;;;;;;;1.17;0.47;;;;;;;20.80;41.59;100851.66;10270468;28;20061;-75
2022/07/15 18:41:21;;;;;;;0.93;0.50;;;;;;;20.60;42.48;100845.81;10257646;28;20173;-75
2022/07/15 18:46:26;;;;;;;2.28;0.40;;;;;;;20.01;43.17;100840.72;10259855;28;20051;-75
2022/07/15 18:51:28;;;;;;;0.75;0.40;;;;;;;20.12;43.50;100844.97;10285684;28;20081;-75
2022/07/15 18:56:31;;;;;;;1.05;0.30;;;;;;;20.18;43.25;100841.53;10276304;28;20067;-75
2022/07/15 19:01:36;;;;;;;0.55;0.20;;;;;;;19.95;43.91;100832.41;10280519;28;20054;-74
2022/07/15 19:06:39;;;;;;;1.88;0.50;;;;;;;19.75;44.93;100835.53;10291736;28;20053;-75
2022/07/15 19:11:41;;;;;;;1.77;0.45;;;;;;;19.49;45.51;100840.31;10281572;28;20065;-78
2022/07/15 19:16:46;;;;;;;0.77;0.40;;;;;;;19.26;45.52;100830.09;10284457;28;20068;-75
2022/07/15 19:21:48;;;;;;;1.42;0.50;;;;;;;19.11;45.59;100829.06;10282581;28;20550;-76
2022/07/15 19:26:51;;;;;;;1.75;0.30;;;;;;;18.84;45.63;100835.69;10250498;28;20190;-76
2022/07/15 19:31:56;;;;;;;2.40;0.50;;;;;;;18.98;45.90;100838.59;10265725;28;20719;-76
2022/07/15 19:36:58;;;;;;;0.50;0.35;;;;;;;18.95;45.83;100835.34;10278273;28;20054;-76
2022/07/15 19:42:02;;;;;;;1.30;0.70;;;;;;;19.02;46.04;100836.38;10284765;28;20134;-76
2022/07/15 19:47:06;;;;;;;1.85;0.35;;;;;;;18.86;45.98;100836.38;10267229;28;20054;-75
2022/07/15 19:52:16;;;;;;;0.73;0.40;;;;;;;18.95;46.26;100836.22;10270106;28;20042;-75
2022/07/15 19:57:19;;;;;;;1.23;0.50;;;;;;;18.92;45.96;100828.38;10276923;28;20537;-76
2022/07/15 20:02:23;;;;;;;0.50;0.50;;;;;;;18.98;46.70;100835.03;10282435;28;20173;-75
2022/07/15 20:07:26;;;;;;;0.68;0.40;;;;;;;18.62;46.20;100837.13;10277918;28;20139;-75
2022/07/15 20:12:29;;;;;;;0.47;0.45;;;;;;;18.54;46.10;100836.09;10297530;28;20051;-75
2022/07/15 20:17:33;;;;;;;1.55;0.63;;;;;;;18.35;46.55;100837.25;10290735;28;20089;-75
2022/07/15 20:22:36;;;;;;;1.92;0.60;;;;;;;18.18;46.54;100832.72;10291950;28;20049;-75
2022/07/15 20:27:39;;;;;;;1.50;0.77;;;;;;;17.88;47.45;100836.78;10285598;28;20515;-75
2022/07/15 20:32:45;;;;;;;3.20;0.73;;;;;;;17.70;47.72;100840.44;10287645;28;20404;-75
2022/07/15 20:37:48;;;;;;;3.35;0.77;;;;;;;17.61;48.13;100833.25;10286624;28;20491;-75
2022/07/15 20:42:51;;;;;;;4.10;1.05;;;;;;;17.47;48.35;100826.53;10261166;28;20143;-78
2022/07/15 20:47:55;;;;;;;1.02;0.82;;;;;;;17.23;48.74;100832.63;10272551;28;20739;-78
2022/07/15 20:52:58;;;;;;;2.78;0.93;;;;;;;17.37;48.91;100819.50;10292304;28;20676;-78
2022/07/15 20:58:01;;;;;;;1.58;0.77;;;;;;;17.34;49.41;100817.94;10261664;28;20046;-77
2022/07/15 21:03:05;;;;;;;3.72;1.13;;;;;;;17.33;48.70;100818.09;10290794;28;20396;-78
2022/07/15 21:08:09;;;;;;;1.95;0.88;;;;;;;17.27;48.43;100822.28;10325514;28;21200;-78
2022/07/15 21:13:12;;;;;;;1.38;0.70;;;;;;;17.27;48.69;100807.88;10304588;28;20093;-78
2022/07/15 21:18:16;;;;;;;3.97;1.38;;;;;;;17.16;48.42;100817.97;10305595;28;20066;-78
2022/07/15 21:23:19;;;;;;;1.40;0.90;;;;;;;16.99;48.39;100814.22;10300118;28;20054;-78
2022/07/15 21:28:22;;;;;;;2.60;1.30;;;;;;;16.93;48.62;100812.16;10288895;28;20055;-78
2022/07/15 21:33:26;;;;;;;3.42;1.00;;;;;;;16.79;48.41;100815.41;10293687;28;20062;-78
2022/07/15 21:38:29;;;;;;;2.47;1.50;;;;;;;16.80;48.15;100807.09;10301448;28;20054;-78
2022/07/15 21:43:33;;;;;;;1.90;0.90;;;;;;;16.83;48.06;100805.94;10304116;28;20046;-78
2022/07/15 21:48:37;;;;;;;3.28;0.90;;;;;;;16.90;47.80;100804.31;10289678;28;20053;-78
2022/07/15 21:53:40;;;;;;;2.05;1.00;;;;;;;16.76;48.33;100807.59;10281395;28;20057;-78
2022/07/15 21:58:43;;;;;;;1.98;0.88;;;;;;;16.78;48.16;100802.84;10305015;28;20043;-77
2022/07/15 22:03:47;;;;;;;4.00;1.25;;;;;;;16.68;48.73;100796.66;10287602;28;20065;-78
2022/07/15 22:08:50;;;;;;;3.75;1.20;;;;;;;16.62;48.76;100802.66;10270805;28;20109;-77
2022/07/15 22:13:53;;;;;;;1.30;1.00;;;;;;;16.67;48.69;100806.63;10276865;28;20046;-78
2022/07/15 22:18:57;;;;;;;2.25;1.00;;;;;;;16.64;49.30;100804.22;10287070;28;20062;-78
2022/07/15 22:24:00;;;;;;;3.17;1.10;;;;;;;16.49;49.05;100801.19;10281460;28;20052;-78
2022/07/15 22:29:04;;;;;;;2.95;1.58;;;;;;;16.32;49.29;100791.19;10282860;28;20519;-78
2022/07/15 22:34:08;;;;;;;1.63;1.23;;;;;;;16.34;49.46;100795.41;10288877;28;20054;-78
2022/07/15 22:39:11;;;;;;;3.28;1.30;;;;;;;16.28;49.21;100784.34;10270299;28;20054;-78
2022/07/15 22:44:14;;;;;;;3.95;1.08;;;;;;;16.28;49.19;100790.63;10269793;28;20133;-78
2022/07/15 22:49:18;;;;;;;3.85;1.08;;;;;;;16.29;49.43;100792.34;10283785;28;20042;-78
2022/07/15 22:54:21;;;;;;;3.90;1.10;;;;;;;16.29;49.45;100795.06;10271772;28;20128;-78
2022/07/15 22:59:25;;;;;;;1.27;0.95;;;;;;;16.18;49.89;100789.81;10289350;28;20050;-78
2022/07/15 23:04:30;;;;;;;3.97;1.45;;;;;;;16.00;50.67;100800.59;10279185;28;20058;-78
2022/07/15 23:09:33;;;;;;;2.33;1.15;;;;;;;15.84;51.01;100789.53;10281964;28;20047;-77
2022/07/15 23:14:36;;;;;;;6.43;1.70;;;;;;;15.74;51.45;100799.53;10277949;28;20050;-77
2022/07/15 23:19:41;;;;;;;3.83;1.45;;;;;;;15.72;51.98;100791.56;10272691;28;20126;-77
2022/07/15 23:24:44;;;;;;;1.95;1.20;;;;;;;15.68;52.21;100787.44;10256964;28;20042;-77
2022/07/15 23:29:47;;;;;;;1.88;1.20;;;;;;;15.75;52.29;100793.16;10269732;28;20078;-78
2022/07/15 23:34:52;;;;;;;2.50;1.10;;;;;;;15.53;53.45;100791.66;10281860;28;20058;-77
2022/07/15 23:39:54;;;;;;;3.50;1.20;;;;;;;15.37;53.55;100795.81;10264385;28;20154;-77